sensor_id;sensor_type;location;lat;lon;timestamp;pressure;altitude;pressure_sealevel;temperature;humidity
11710;BME280;5911;51.036;6.972;2022-08-27T00:01:52;100760.06;;;22.81;95.09
11710;BME280;5911;51.036;6.972;2022-08-27T00:04:20;100760.91;;;22.82;95.15
11710;BME280;5911;51.036;6.972;2022-08-27T00:06:48;100766.47;;;22.80;95.10
11710;BME280;5911;51.036;6.972;2022-08-27T00:09:17;100762.53;;;22.76;95.88
11710;BME280;5911;51.036;6.972;2022-08-27T00:11:53;100760.47;;;22.78;96.53
11710;BME280;5911;51.036;6.972;2022-08-27T00:14:22;100770.16;;;22.72;96.37
11710;BME280;5911;51.036;6.972;2022-08-27T00:16:50;100763.94;;;22.72;95.94
11710;BME280;5911;51.036;6.972;2022-08-27T00:19:18;100763.94;;;22.72;96.57
11710;BME280;5911;51.036;6.972;2022-08-27T00:21:46;100764.78;;;22.72;96.21
11710;BME280;5911;51.036;6.972;2022-08-27T00:24:14;100756.28;;;22.69;96.34
11710;BME280;5911;51.036;6.972;2022-08-27T00:26:42;100760.00;;;22.68;96.35
11710;BME280;5911;51.036;6.972;2022-08-27T00:29:12;100750.84;;;22.62;95.96
11710;BME280;5911;51.036;6.972;2022-08-27T00:31:40;100762.88;;;22.60;96.23
11710;BME280;5911;51.036;6.972;2022-08-27T00:34:09;100761.41;;;22.57;96.05
11710;BME280;5911;51.036;6.972;2022-08-27T00:36:39;100739.41;;;22.40;96.26
11710;BME280;5911;51.036;6.972;2022-08-27T00:39:07;100755.34;;;22.49;96.45
11710;BME280;5911;51.036;6.972;2022-08-27T00:41:35;100763.03;;;22.52;96.49
11710;BME280;5911;51.036;6.972;2022-08-27T00:44:03;100768.59;;;22.50;96.52
11710;BME280;5911;51.036;6.972;2022-08-27T00:46:36;100765.50;;;22.53;96.80
11710;BME280;5911;51.036;6.972;2022-08-27T00:49:08;100768.00;;;22.55;96.75
11710;BME280;5911;51.036;6.972;2022-08-27T00:51:38;100757.63;;;22.45;96.82
11710;BME280;5911;51.036;6.972;2022-08-27T00:54:06;100762.59;;;22.48;96.80
11710;BME280;5911;51.036;6.972;2022-08-27T00:56:39;100769.22;;;22.45;96.83
11710;BME280;5911;51.036;6.972;2022-08-27T00:59:15;100762.56;;;22.41;96.94
11710;BME280;5911;51.036;6.972;2022-08-27T01:01:45;100769.00;;;22.47;97.05
11710;BME280;5911;51.036;6.972;2022-08-27T01:04:33;100770.84;;;22.46;96.89
11710;BME280;5911;51.036;6.972;2022-08-27T01:07:03;100767.97;;;22.48;96.51
11710;BME280;5911;51.036;6.972;2022-08-27T01:09:31;100771.25;;;22.43;95.74
11710;BME280;5911;51.036;6.972;2022-08-27T01:11:59;100771.25;;;22.43;95.79
11710;BME280;5911;51.036;6.972;2022-08-27T01:14:27;100768.78;;;22.49;95.93
11710;BME280;5911;51.036;6.972;2022-08-27T01:16:58;100767.56;;;22.44;96.06
11710;BME280;5911;51.036;6.972;2022-08-27T01:19:29;100768.78;;;22.42;95.93
11710;BME280;5911;51.036;6.972;2022-08-27T01:22:05;100765.25;;;22.41;96.57
11710;BME280;5911;51.036;6.972;2022-08-27T01:24:38;100739.25;;;22.14;96.29
11710;BME280;5911;51.036;6.972;2022-08-27T01:27:12;100761.28;;;22.37;95.71
11710;BME280;5911;51.036;6.972;2022-08-27T01:29:42;100760.84;;;22.34;95.58
11710;BME280;5911;51.036;6.972;2022-08-27T01:32:13;100758.34;;;22.32;96.34
11710;BME280;5911;51.036;6.972;2022-08-27T01:34:42;100753.19;;;22.31;96.37
11710;BME280;5911;51.036;6.972;2022-08-27T01:37:11;100747.16;;;22.22;96.05
11710;BME280;5911;51.036;6.972;2022-08-27T01:39:42;100750.47;;;22.24;96.40
11710;BME280;5911;51.036;6.972;2022-08-27T01:42:16;100741.56;;;22.24;96.71
11710;BME280;5911;51.036;6.972;2022-08-27T01:44:47;100756.28;;;22.28;96.37
11710;BME280;5911;51.036;6.972;2022-08-27T01:47:16;100753.78;;;22.26;96.54
11710;BME280;5911;51.036;6.972;2022-08-27T01:49:45;100754.81;;;22.25;96.73
11710;BME280;5911;51.036;6.972;2022-08-27T01:52:16;100752.13;;;22.25;96.57
11710;BME280;5911;51.036;6.972;2022-08-27T01:54:46;100748.03;;;22.29;96.65
11710;BME280;5911;51.036;6.972;2022-08-27T01:57:14;100740.56;;;22.31;96.32
11710;BME280;5911;51.036;6.972;2022-08-27T01:59:42;100746.38;;;22.28;96.23
11710;BME280;5911;51.036;6.972;2022-08-27T02:02:11;100748.63;;;22.31;96.05
11710;BME280;5911;51.036;6.972;2022-08-27T02:04:40;100737.69;;;22.33;95.99
11710;BME280;5911;51.036;6.972;2022-08-27T02:07:08;100741.84;;;22.35;96.46
11710;BME280;5911;51.036;6.972;2022-08-27T02:09:36;100736.84;;;22.32;96.41
11710;BME280;5911;51.036;6.972;2022-08-27T02:12:06;100735.63;;;22.28;96.62
11710;BME280;5911;51.036;6.972;2022-08-27T02:14:34;100738.09;;;22.30;96.17
11710;BME280;5911;51.036;6.972;2022-08-27T02:17:02;100742.03;;;22.27;95.51
11710;BME280;5911;51.036;6.972;2022-08-27T02:19:30;100733.06;;;22.20;95.48
11710;BME280;5911;51.036;6.972;2022-08-27T02:21:58;100734.72;;;22.21;95.03
11710;BME280;5911;51.036;6.972;2022-08-27T02:24:26;100729.38;;;22.21;94.84
11710;BME280;5911;51.036;6.972;2022-08-27T02:26:55;100725.84;;;22.21;94.85
11710;BME280;5911;51.036;6.972;2022-08-27T02:29:24;100721.47;;;22.13;94.44
11710;BME280;5911;51.036;6.972;2022-08-27T02:31:52;100723.34;;;22.19;94.62
11710;BME280;5911;51.036;6.972;2022-08-27T02:34:20;100729.75;;;22.18;94.44
11710;BME280;5911;51.036;6.972;2022-08-27T02:36:48;100737.44;;;22.21;94.22
11710;BME280;5911;51.036;6.972;2022-08-27T02:39:16;100734.28;;;22.18;93.85
11710;BME280;5911;51.036;6.972;2022-08-27T02:41:44;100720.00;;;22.10;93.49
11710;BME280;5911;51.036;6.972;2022-08-27T02:44:12;100728.91;;;22.18;93.44
11710;BME280;5911;51.036;6.972;2022-08-27T02:46:42;100735.94;;;22.12;93.36
11710;BME280;5911;51.036;6.972;2022-08-27T02:49:10;100728.50;;;22.14;92.70
11710;BME280;5911;51.036;6.972;2022-08-27T02:51:38;100727.88;;;22.12;92.23
11710;BME280;5911;51.036;6.972;2022-08-27T02:54:06;100717.25;;;22.04;91.86
11710;BME280;5911;51.036;6.972;2022-08-27T02:56:35;100720.19;;;22.09;91.82
11710;BME280;5911;51.036;6.972;2022-08-27T02:59:03;100731.34;;;22.06;91.33
11710;BME280;5911;51.036;6.972;2022-08-27T03:01:31;100721.63;;;22.05;91.16
11710;BME280;5911;51.036;6.972;2022-08-27T03:04:00;100721.56;;;21.98;90.66
11710;BME280;5911;51.036;6.972;2022-08-27T03:06:28;100718.28;;;22.03;90.52
11710;BME280;5911;51.036;6.972;2022-08-27T03:08:57;100714.97;;;22.01;90.78
11710;BME280;5911;51.036;6.972;2022-08-27T03:11:25;100721.38;;;22.00;91.03
11710;BME280;5911;51.036;6.972;2022-08-27T03:13:53;100718.03;;;21.98;90.45
11710;BME280;5911;51.036;6.972;2022-08-27T03:16:20;100721.13;;;21.95;90.36
11710;BME280;5911;51.036;6.972;2022-08-27T03:18:48;100711.00;;;21.97;90.16
11710;BME280;5911;51.036;6.972;2022-08-27T03:21:19;100722.53;;;21.91;90.20
11710;BME280;5911;51.036;6.972;2022-08-27T03:23:47;100715.50;;;21.90;90.85
11710;BME280;5911;51.036;6.972;2022-08-27T03:26:15;100724.75;;;21.87;90.42
11710;BME280;5911;51.036;6.972;2022-08-27T03:28:44;100720.22;;;21.88;90.42
11710;BME280;5911;51.036;6.972;2022-08-27T03:31:14;100723.94;;;21.87;90.30
11710;BME280;5911;51.036;6.972;2022-08-27T03:33:42;100730.00;;;21.95;90.59
11710;BME280;5911;51.036;6.972;2022-08-27T03:36:10;100723.81;;;21.95;90.64
11710;BME280;5911;51.036;6.972;2022-08-27T03:38:40;100724.69;;;22.02;90.33
11710;BME280;5911;51.036;6.972;2022-08-27T03:41:07;100729.81;;;21.97;90.01
11710;BME280;5911;51.036;6.972;2022-08-27T03:43:35;100726.50;;;21.95;90.54
11710;BME280;5911;51.036;6.972;2022-08-27T03:46:03;100719.41;;;21.87;90.29
11710;BME280;5911;51.036;6.972;2022-08-27T03:48:34;100722.09;;;21.87;90.58
11710;BME280;5911;51.036;6.972;2022-08-27T03:51:04;100722.91;;;21.88;90.71
11710;BME280;5911;51.036;6.972;2022-08-27T03:53:34;100718.81;;;21.92;91.34
11710;BME280;5911;51.036;6.972;2022-08-27T03:56:04;100722.28;;;21.86;90.99
11710;BME280;5911;51.036;6.972;2022-08-27T03:58:33;100719.19;;;21.89;90.79
11710;BME280;5911;51.036;6.972;2022-08-27T04:01:01;100726.63;;;21.87;91.44
11710;BME280;5911;51.036;6.972;2022-08-27T04:03:29;100715.88;;;21.87;91.68
11710;BME280;5911;51.036;6.972;2022-08-27T04:05:57;100729.56;;;21.92;91.71
11710;BME280;5911;51.036;6.972;2022-08-27T04:08:26;100731.59;;;21.90;91.64
11710;BME280;5911;51.036;6.972;2022-08-27T04:10:54;100727.91;;;21.91;91.78
11710;BME280;5911;51.036;6.972;2022-08-27T04:13:24;100731.81;;;21.88;91.81
11710;BME280;5911;51.036;6.972;2022-08-27T04:15:52;100737.38;;;21.87;91.94
11710;BME280;5911;51.036;6.972;2022-08-27T04:18:21;100738.19;;;21.87;92.03
11710;BME280;5911;51.036;6.972;2022-08-27T04:20:50;100736.34;;;21.88;91.90
11710;BME280;5911;51.036;6.972;2022-08-27T04:23:19;100735.47;;;21.81;91.77
11710;BME280;5911;51.036;6.972;2022-08-27T04:25:47;100729.09;;;21.82;91.73
11710;BME280;5911;51.036;6.972;2022-08-27T04:28:15;100732.00;;;21.87;91.84
11710;BME280;5911;51.036;6.972;2022-08-27T04:30:45;100741.91;;;21.86;91.59
11710;BME280;5911;51.036;6.972;2022-08-27T04:33:14;100742.31;;;21.83;91.73
11710;BME280;5911;51.036;6.972;2022-08-27T04:35:42;100749.97;;;21.86;92.01
11710;BME280;5911;51.036;6.972;2022-08-27T04:38:10;100745.63;;;21.85;92.07
11710;BME280;5911;51.036;6.972;2022-08-27T04:40:38;100750.56;;;21.82;91.50
11710;BME280;5911;51.036;6.972;2022-08-27T04:43:25;100743.91;;;21.77;91.64
11710;BME280;5911;51.036;6.972;2022-08-27T04:45:54;100757.59;;;21.83;91.51
11710;BME280;5911;51.036;6.972;2022-08-27T04:48:23;100753.38;;;21.73;91.58
11710;BME280;5911;51.036;6.972;2022-08-27T04:50:51;100762.91;;;21.76;91.16
11710;BME280;5911;51.036;6.972;2022-08-27T04:53:19;100766.63;;;21.75;91.63
11710;BME280;5911;51.036;6.972;2022-08-27T04:55:49;100763.91;;;21.68;91.90
11710;BME280;5911;51.036;6.972;2022-08-27T04:58:19;100755.59;;;21.63;91.81
11710;BME280;5911;51.036;6.972;2022-08-27T05:00:49;100762.84;;;21.69;92.20
11710;BME280;5911;51.036;6.972;2022-08-27T05:03:21;100757.63;;;21.61;92.45
11710;BME280;5911;51.036;6.972;2022-08-27T05:05:50;100749.28;;;21.50;93.43
11710;BME280;5911;51.036;6.972;2022-08-27T05:08:18;100762.34;;;21.59;93.03
11710;BME280;5911;51.036;6.972;2022-08-27T05:10:48;100771.06;;;21.61;93.40
11710;BME280;5911;51.036;6.972;2022-08-27T05:13:17;100764.84;;;21.61;93.95
11710;BME280;5911;51.036;6.972;2022-08-27T05:15:46;100767.78;;;21.66;94.15
11710;BME280;5911;51.036;6.972;2022-08-27T05:18:14;100767.41;;;21.69;94.61
11710;BME280;5911;51.036;6.972;2022-08-27T05:20:45;100775.66;;;21.67;95.27
11710;BME280;5911;51.036;6.972;2022-08-27T05:23:14;100779.38;;;21.66;96.25
11710;BME280;5911;51.036;6.972;2022-08-27T05:25:45;100776.69;;;21.66;96.63
11710;BME280;5911;51.036;6.972;2022-08-27T05:28:14;100778.66;;;21.58;96.33
11710;BME280;5911;51.036;6.972;2022-08-27T05:30:44;100776.63;;;21.60;96.80
11710;BME280;5911;51.036;6.972;2022-08-27T05:33:24;100784.22;;;21.56;97.30
11710;BME280;5911;51.036;6.972;2022-08-27T05:35:55;100782.19;;;21.58;98.31
11710;BME280;5911;51.036;6.972;2022-08-27T05:38:25;100782.19;;;21.58;99.26
11710;BME280;5911;51.036;6.972;2022-08-27T05:41:02;100778.19;;;21.54;99.86
11710;BME280;5911;51.036;6.972;2022-08-27T05:43:30;100780.28;;;21.52;100.00
11710;BME280;5911;51.036;6.972;2022-08-27T05:46:02;100773.63;;;21.48;100.00
11710;BME280;5911;51.036;6.972;2022-08-27T05:48:31;100778.69;;;21.36;100.00
11710;BME280;5911;51.036;6.972;2022-08-27T05:51:08;100780.78;;;21.41;100.00
11710;BME280;5911;51.036;6.972;2022-08-27T05:53:38;100781.19;;;21.38;100.00
11710;BME280;5911;51.036;6.972;2022-08-27T05:56:11;100788.19;;;21.39;100.00
11710;BME280;5911;51.036;6.972;2022-08-27T05:58:39;100781.78;;;21.40;100.00
11710;BME280;5911;51.036;6.972;2022-08-27T06:01:25;100777.03;;;21.35;100.00
11710;BME280;5911;51.036;6.972;2022-08-27T06:03:53;100735.75;;;21.00;100.00
11710;BME280;5911;51.036;6.972;2022-08-27T06:06:23;100786.66;;;21.30;100.00
11710;BME280;5911;51.036;6.972;2022-08-27T06:08:52;100785.81;;;21.29;100.00
11710;BME280;5911;51.036;6.972;2022-08-27T06:11:21;100769.06;;;21.27;100.00
11710;BME280;5911;51.036;6.972;2022-08-27T06:13:49;100783.78;;;21.31;100.00
11710;BME280;5911;51.036;6.972;2022-08-27T06:16:18;100772.34;;;21.23;100.00
11710;BME280;5911;51.036;6.972;2022-08-27T06:18:47;100782.94;;;21.31;100.00
11710;BME280;5911;51.036;6.972;2022-08-27T06:21:17;100785.63;;;21.31;100.00
11710;BME280;5911;51.036;6.972;2022-08-27T06:23:52;100791.84;;;21.31;100.00
11710;BME280;5911;51.036;6.972;2022-08-27T06:26:22;100785.25;;;21.34;100.00
11710;BME280;5911;51.036;6.972;2022-08-27T06:28:50;100786.19;;;21.26;100.00
11710;BME280;5911;51.036;6.972;2022-08-27T06:31:21;100791.38;;;21.28;100.00
11710;BME280;5911;51.036;6.972;2022-08-27T06:33:56;100796.75;;;21.28;100.00
11710;BME280;5911;51.036;6.972;2022-08-27T06:36:34;100792.41;;;21.27;100.00
11710;BME280;5911;51.036;6.972;2022-08-27T06:39:07;100794.44;;;21.25;100.00
11710;BME280;5911;51.036;6.972;2022-08-27T06:41:39;100796.28;;;21.24;100.00
11710;BME280;5911;51.036;6.972;2022-08-27T06:44:10;100797.13;;;21.25;100.00
11710;BME280;5911;51.036;6.972;2022-08-27T06:46:39;100797.13;;;21.25;100.00
11710;BME280;5911;51.036;6.972;2022-08-27T06:49:08;100798.78;;;21.26;100.00
11710;BME280;5911;51.036;6.972;2022-08-27T06:51:38;100777.97;;;21.13;100.00
11710;BME280;5911;51.036;6.972;2022-08-27T06:54:10;100794.25;;;21.26;100.00
11710;BME280;5911;51.036;6.972;2022-08-27T06:56:38;100737.28;;;20.88;100.00
11710;BME280;5911;51.036;6.972;2022-08-27T06:59:08;100776.78;;;21.16;100.00
11710;BME280;5911;51.036;6.972;2022-08-27T07:01:40;100797.56;;;21.28;100.00
11710;BME280;5911;51.036;6.972;2022-08-27T07:04:11;100800.44;;;21.27;100.00
11710;BME280;5911;51.036;6.972;2022-08-27T07:06:40;100792.41;;;21.27;100.00
11710;BME280;5911;51.036;6.972;2022-08-27T07:09:09;100778.81;;;21.14;100.00
11710;BME280;5911;51.036;6.972;2022-08-27T07:11:38;100795.06;;;21.27;100.00
11710;BME280;5911;51.036;6.972;2022-08-27T07:14:06;100792.41;;;21.27;100.00
11710;BME280;5911;51.036;6.972;2022-08-27T07:16:35;100787.22;;;21.25;100.00
11710;BME280;5911;51.036;6.972;2022-08-27T07:19:06;100792.16;;;21.22;100.00
11710;BME280;5911;51.036;6.972;2022-08-27T07:21:37;100788.03;;;21.26;100.00
11710;BME280;5911;51.036;6.972;2022-08-27T07:24:06;100787.41;;;21.24;100.00
11710;BME280;5911;51.036;6.972;2022-08-27T07:26:38;100790.50;;;21.21;100.00
11710;BME280;5911;51.036;6.972;2022-08-27T07:29:08;100789.72;;;21.27;100.00
11710;BME280;5911;51.036;6.972;2022-08-27T07:31:37;100786.66;;;21.30;100.00
11710;BME280;5911;51.036;6.972;2022-08-27T07:34:05;100778.34;;;21.25;100.00
11710;BME280;5911;51.036;6.972;2022-08-27T07:36:34;100784.72;;;21.24;100.00
11710;BME280;5911;51.036;6.972;2022-08-27T07:39:02;100792.28;;;21.35;100.00
11710;BME280;5911;51.036;6.972;2022-08-27T07:41:31;100793.31;;;21.34;100.00
11710;BME280;5911;51.036;6.972;2022-08-27T07:44:20;100795.16;;;21.33;100.00
11710;BME280;5911;51.036;6.972;2022-08-27T07:47:00;100795.63;;;21.37;100.00
11710;BME280;5911;51.036;6.972;2022-08-27T07:49:28;100803.06;;;21.41;100.00
11710;BME280;5911;51.036;6.972;2022-08-27T07:51:57;100787.88;;;21.13;100.00
11710;BME280;5911;51.036;6.972;2022-08-27T07:54:25;100799.31;;;21.36;100.00
11710;BME280;5911;51.036;6.972;2022-08-27T07:56:53;100805.91;;;21.33;100.00
11710;BME280;5911;51.036;6.972;2022-08-27T07:59:23;100801.59;;;21.39;100.00
11710;BME280;5911;51.036;6.972;2022-08-27T08:01:52;100793.81;;;21.23;100.00
11710;BME280;5911;51.036;6.972;2022-08-27T08:04:21;100808.38;;;21.35;100.00
11710;BME280;5911;51.036;6.972;2022-08-27T08:06:50;100797.00;;;21.33;100.00
11710;BME280;5911;51.036;6.972;2022-08-27T08:09:18;100807.69;;;21.48;100.00
11710;BME280;5911;51.036;6.972;2022-08-27T08:11:47;100811.22;;;21.48;100.00
11710;BME280;5911;51.036;6.972;2022-08-27T08:14:15;100814.53;;;21.50;100.00
11710;BME280;5911;51.036;6.972;2022-08-27T08:16:44;100798.13;;;21.38;100.00
11710;BME280;5911;51.036;6.972;2022-08-27T08:19:13;100819.53;;;21.53;100.00
11710;BME280;5911;51.036;6.972;2022-08-27T08:21:41;100820.97;;;21.56;100.00
11710;BME280;5911;51.036;6.972;2022-08-27T08:24:09;100823.03;;;21.54;100.00
11710;BME280;5911;51.036;6.972;2022-08-27T08:26:37;100820.56;;;21.52;100.00
11710;BME280;5911;51.036;6.972;2022-08-27T08:29:07;100803.47;;;21.38;100.00
11710;BME280;5911;51.036;6.972;2022-08-27T08:31:44;100826.09;;;21.51;100.00
11710;BME280;5911;51.036;6.972;2022-08-27T08:34:16;100821.31;;;21.46;100.00
11710;BME280;5911;51.036;6.972;2022-08-27T08:36:45;100825.28;;;21.50;100.00
11710;BME280;5911;51.036;6.972;2022-08-27T08:39:20;100832.03;;;21.46;100.00
11710;BME280;5911;51.036;6.972;2022-08-27T08:41:50;100826.28;;;21.49;100.00
11710;BME280;5911;51.036;6.972;2022-08-27T08:44:26;100826.81;;;21.59;100.00
11710;BME280;5911;51.036;6.972;2022-08-27T08:47:02;100797.78;;;21.48;100.00
11710;BME280;5911;51.036;6.972;2022-08-27T08:49:40;100836.78;;;21.65;100.00
11710;BME280;5911;51.036;6.972;2022-08-27T08:52:25;100831.28;;;21.73;100.00
11710;BME280;5911;51.036;6.972;2022-08-27T08:55:06;100834.84;;;21.81;100.00
11710;BME280;5911;51.036;6.972;2022-08-27T08:57:40;100834.06;;;21.87;100.00
11710;BME280;5911;51.036;6.972;2022-08-27T09:00:12;100838.22;;;21.89;100.00
11710;BME280;5911;51.036;6.972;2022-08-27T09:02:52;100842.38;;;21.92;99.52
11710;BME280;5911;51.036;6.972;2022-08-27T09:05:21;100835.09;;;21.86;99.17
11710;BME280;5911;51.036;6.972;2022-08-27T09:08:00;100849.81;;;21.90;100.00
11710;BME280;5911;51.036;6.972;2022-08-27T09:10:53;100838.69;;;21.93;98.29
11710;BME280;5911;51.036;6.972;2022-08-27T09:13:24;100845.72;;;21.94;98.52
11710;BME280;5911;51.036;6.972;2022-08-27T09:15:57;100849.44;;;21.93;97.12
11710;BME280;5911;51.036;6.972;2022-08-27T09:18:27;100838.78;;;21.85;96.80
11710;BME280;5911;51.036;6.972;2022-08-27T09:21:02;100855.63;;;21.93;98.64
11710;BME280;5911;51.036;6.972;2022-08-27T09:23:41;100844.06;;;21.93;96.99
11710;BME280;5911;51.036;6.972;2022-08-27T09:26:20;100856.47;;;21.94;97.16
11710;BME280;5911;51.036;6.972;2022-08-27T09:28:48;100850.72;;;21.97;96.82
11710;BME280;5911;51.036;6.972;2022-08-27T09:31:39;100853.66;;;22.02;97.26
11710;BME280;5911;51.036;6.972;2022-08-27T09:34:08;100845.66;;;22.08;96.86
11710;BME280;5911;51.036;6.972;2022-08-27T09:36:50;100840.41;;;22.00;96.25
11710;BME280;5911;51.036;6.972;2022-08-27T09:39:24;100841.50;;;22.06;95.58
11710;BME280;5911;51.036;6.972;2022-08-27T09:41:54;100850.47;;;22.13;95.26
11710;BME280;5911;51.036;6.972;2022-08-27T09:44:22;100848.63;;;22.20;95.58
11710;BME280;5911;51.036;6.972;2022-08-27T09:46:54;100850.56;;;22.26;95.54
11710;BME280;5911;51.036;6.972;2022-08-27T09:49:24;100859.66;;;22.25;94.91
11710;BME280;5911;51.036;6.972;2022-08-27T09:51:53;100856.38;;;22.30;95.88
11710;BME280;5911;51.036;6.972;2022-08-27T09:54:37;100857.59;;;22.27;93.64
11710;BME280;5911;51.036;6.972;2022-08-27T09:57:07;100860.47;;;22.26;94.60
11710;BME280;5911;51.036;6.972;2022-08-27T09:59:39;100865.66;;;22.27;94.17
11710;BME280;5911;51.036;6.972;2022-08-27T10:02:13;100862.53;;;22.24;93.89
11710;BME280;5911;51.036;6.972;2022-08-27T10:04:44;100856.75;;;22.27;94.39
11710;BME280;5911;51.036;6.972;2022-08-27T10:07:29;100856.97;;;22.25;92.15
11710;BME280;5911;51.036;6.972;2022-08-27T10:10:03;100860.03;;;22.22;91.84
11710;BME280;5911;51.036;6.972;2022-08-27T10:12:43;100860.41;;;22.19;91.41
11710;BME280;5911;51.036;6.972;2022-08-27T10:15:13;100864.56;;;22.22;91.47
11710;BME280;5911;51.036;6.972;2022-08-27T10:17:51;100860.88;;;22.23;91.22
11710;BME280;5911;51.036;6.972;2022-08-27T10:20:31;100863.16;;;22.26;92.37
11710;BME280;5911;51.036;6.972;2022-08-27T10:23:13;100846.34;;;22.17;92.32
11710;BME280;5911;51.036;6.972;2022-08-27T10:25:53;100863.81;;;22.28;91.97
11710;BME280;5911;51.036;6.972;2022-08-27T10:28:34;100864.19;;;22.25;91.46
11710;BME280;5911;51.036;6.972;2022-08-27T10:31:15;100859.66;;;22.25;90.14
11710;BME280;5911;51.036;6.972;2022-08-27T10:33:54;100864.22;;;22.31;90.87
11710;BME280;5911;51.036;6.972;2022-08-27T10:36:37;100863.84;;;22.34;89.87
11710;BME280;5911;51.036;6.972;2022-08-27T10:39:14;100866.91;;;22.31;89.00
11710;BME280;5911;51.036;6.972;2022-08-27T10:41:50;100864.44;;;22.30;89.06
11710;BME280;5911;51.036;6.972;2022-08-27T10:44:38;100854.72;;;22.29;88.17
11710;BME280;5911;51.036;6.972;2022-08-27T10:47:29;100864.47;;;22.36;88.64
11710;BME280;5911;51.036;6.972;2022-08-27T10:50:03;100863.38;;;22.31;88.00
11710;BME280;5911;51.036;6.972;2022-08-27T10:52:37;100871.25;;;22.32;86.82
11710;BME280;5911;51.036;6.972;2022-08-27T10:55:11;100866.13;;;22.37;87.22
11710;BME280;5911;51.036;6.972;2022-08-27T10:57:55;100864.09;;;22.39;86.98
11710;BME280;5911;51.036;6.972;2022-08-27T11:00:32;100863.06;;;22.40;87.33
11710;BME280;5911;51.036;6.972;2022-08-27T11:03:06;100861.66;;;22.44;87.64
11710;BME280;5911;51.036;6.972;2022-08-27T11:05:42;100858.31;;;22.42;86.23
11710;BME280;5911;51.036;6.972;2022-08-27T11:08:16;100860.66;;;22.52;85.10
11710;BME280;5911;51.036;6.972;2022-08-27T11:10:48;100866.47;;;22.56;85.53
11710;BME280;5911;51.036;6.972;2022-08-27T11:13:25;100861.34;;;22.61;85.85
11710;BME280;5911;51.036;6.972;2022-08-27T11:15:58;100862.75;;;22.57;84.74
11710;BME280;5911;51.036;6.972;2022-08-27T11:18:35;100858.25;;;22.64;84.03
11710;BME280;5911;51.036;6.972;2022-08-27T11:21:13;100865.44;;;22.57;82.45
11710;BME280;5911;51.036;6.972;2022-08-27T11:23:45;100853.03;;;22.56;84.22
11710;BME280;5911;51.036;6.972;2022-08-27T11:26:16;100843.66;;;22.45;83.64
11710;BME280;5911;51.036;6.972;2022-08-27T11:28:47;100829.78;;;22.41;83.65
11710;BME280;5911;51.036;6.972;2022-08-27T11:31:21;100864.03;;;22.61;83.57
11710;BME280;5911;51.036;6.972;2022-08-27T11:33:56;100864.66;;;22.63;83.23
11710;BME280;5911;51.036;6.972;2022-08-27T11:39:38;100850.59;;;22.67;82.47
11710;BME280;5911;51.036;6.972;2022-08-27T11:42:19;100861.81;;;22.71;83.51
11710;BME280;5911;51.036;6.972;2022-08-27T11:45:04;100851.19;;;22.63;82.41
11710;BME280;5911;51.036;6.972;2022-08-27T11:47:32;100850.81;;;22.66;82.77
11710;BME280;5911;51.036;6.972;2022-08-27T11:50:06;100858.72;;;22.74;82.94
11710;BME280;5911;51.036;6.972;2022-08-27T11:52:37;100861.66;;;22.79;82.62
11710;BME280;5911;51.036;6.972;2022-08-27T11:55:13;100866.41;;;22.77;80.53
11710;BME280;5911;51.036;6.972;2022-08-27T11:58:05;100866.22;;;22.78;80.30
11710;BME280;5911;51.036;6.972;2022-08-27T12:00:36;100856.53;;;22.84;81.07
11710;BME280;5911;51.036;6.972;2022-08-27T12:03:06;100863.38;;;22.93;80.13
11710;BME280;5911;51.036;6.972;2022-08-27T12:05:40;100857.22;;;22.99;79.52
11710;BME280;5911;51.036;6.972;2022-08-27T12:08:24;100853.94;;;23.04;78.48
11710;BME280;5911;51.036;6.972;2022-08-27T12:11:06;100859.34;;;23.10;78.50
11710;BME280;5911;51.036;6.972;2022-08-27T12:13:39;100858.31;;;23.11;78.56
11710;BME280;5911;51.036;6.972;2022-08-27T12:16:18;100863.28;;;23.14;77.77
11710;BME280;5911;51.036;6.972;2022-08-27T12:18:57;100859.38;;;23.17;76.89
11710;BME280;5911;51.036;6.972;2022-08-27T12:21:39;100850.69;;;23.22;77.30
11710;BME280;5911;51.036;6.972;2022-08-27T12:24:30;100854.81;;;23.24;75.61
11710;BME280;5911;51.036;6.972;2022-08-27T12:27:16;100856.69;;;23.24;75.45
11710;BME280;5911;51.036;6.972;2022-08-27T12:29:54;100848.81;;;23.22;75.77
11710;BME280;5911;51.036;6.972;2022-08-27T12:32:26;100862.69;;;23.26;74.98
11710;BME280;5911;51.036;6.972;2022-08-27T12:35:01;100861.88;;;23.19;73.61
11710;BME280;5911;51.036;6.972;2022-08-27T12:37:34;100856.09;;;23.28;75.17
11710;BME280;5911;51.036;6.972;2022-08-27T12:40:10;100860.44;;;23.29;75.00
11710;BME280;5911;51.036;6.972;2022-08-27T12:42:41;100853.19;;;23.30;74.21
11710;BME280;5911;51.036;6.972;2022-08-27T12:45:18;100847.81;;;23.30;74.85
11710;BME280;5911;51.036;6.972;2022-08-27T12:47:46;100852.31;;;23.23;74.67
11710;BME280;5911;51.036;6.972;2022-08-27T12:50:22;100849.25;;;23.26;74.77
11710;BME280;5911;51.036;6.972;2022-08-27T12:56:02;100843.63;;;23.14;73.70
11710;BME280;5911;51.036;6.972;2022-08-27T12:58:42;100846.09;;;23.15;73.84
11710;BME280;5911;51.036;6.972;2022-08-27T13:01:30;100861.88;;;23.19;74.06
11710;BME280;5911;51.036;6.972;2022-08-27T13:04:18;100839.94;;;23.22;73.64
11710;BME280;5911;51.036;6.972;2022-08-27T13:06:46;100839.09;;;23.28;73.48
11710;BME280;5911;51.036;6.972;2022-08-27T13:09:15;100841.19;;;23.32;73.79
11710;BME280;5911;51.036;6.972;2022-08-27T13:11:45;100840.59;;;23.37;73.07
11710;BME280;5911;51.036;6.972;2022-08-27T13:14:16;100841.19;;;23.39;72.44
11710;BME280;5911;51.036;6.972;2022-08-27T13:16:49;100822.97;;;23.34;72.31
11710;BME280;5911;51.036;6.972;2022-08-27T13:19:21;100830.44;;;23.39;71.99
11710;BME280;5911;51.036;6.972;2022-08-27T13:21:51;100828.56;;;23.39;71.70
11710;BME280;5911;51.036;6.972;2022-08-27T13:24:32;100826.31;;;23.43;70.14
11710;BME280;5911;51.036;6.972;2022-08-27T13:27:02;100828.34;;;23.41;70.22
11710;BME280;5911;51.036;6.972;2022-08-27T13:29:32;100784.19;;;23.15;70.36